sensor_id;sensor_type;location;lat;lon;timestamp;P1;durP1;ratioP1;P2;durP2;ratioP2
73672;SDS011;61972;19.480;-99.240;2022-08-19T00:00:34;9.55;;;5.03;;
73672;SDS011;61972;19.480;-99.240;2022-08-19T00:03:01;7.43;;;4.72;;
73672;SDS011;61972;19.480;-99.240;2022-08-19T00:05:28;9.10;;;4.60;;
73672;SDS011;61972;19.480;-99.240;2022-08-19T00:07:54;7.97;;;4.40;;
73672;SDS011;61972;19.480;-99.240;2022-08-19T00:10:20;6.35;;;3.90;;
73672;SDS011;61972;19.480;-99.240;2022-08-19T00:12:47;7.38;;;3.88;;
73672;SDS011;61972;19.480;-99.240;2022-08-19T00:15:14;8.38;;;4.15;;
73672;SDS011;61972;19.480;-99.240;2022-08-19T00:17:42;7.40;;;3.67;;
73672;SDS011;61972;19.480;-99.240;2022-08-19T00:20:10;6.97;;;3.77;;
73672;SDS011;61972;19.480;-99.240;2022-08-19T00:22:38;7.45;;;3.85;;
73672;SDS011;61972;19.480;-99.240;2022-08-19T00:25:07;6.93;;;3.50;;
73672;SDS011;61972;19.480;-99.240;2022-08-19T00:27:33;8.77;;;3.30;;
73672;SDS011;61972;19.480;-99.240;2022-08-19T00:29:59;7.50;;;3.15;;
73672;SDS011;61972;19.480;-99.240;2022-08-19T00:32:28;6.43;;;3.03;;
73672;SDS011;61972;19.480;-99.240;2022-08-19T00:34:54;6.10;;;3.00;;
73672;SDS011;61972;19.480;-99.240;2022-08-19T00:37:21;6.28;;;2.78;;
73672;SDS011;61972;19.480;-99.240;2022-08-19T00:39:49;4.53;;;2.53;;
73672;SDS011;61972;19.480;-99.240;2022-08-19T00:42:19;5.38;;;2.65;;
73672;SDS011;61972;19.480;-99.240;2022-08-19T00:44:46;6.03;;;2.70;;
73672;SDS011;61972;19.480;-99.240;2022-08-19T00:47:13;5.47;;;2.50;;
73672;SDS011;61972;19.480;-99.240;2022-08-19T00:49:50;5.55;;;2.40;;
73672;SDS011;61972;19.480;-99.240;2022-08-19T00:52:25;5.28;;;2.20;;
73672;SDS011;61972;19.480;-99.240;2022-08-19T00:54:57;3.65;;;1.85;;
73672;SDS011;61972;19.480;-99.240;2022-08-19T00:57:27;4.30;;;2.20;;
73672;SDS011;61972;19.480;-99.240;2022-08-19T00:59:57;2.80;;;1.67;;
73672;SDS011;61972;19.480;-99.240;2022-08-19T01:02:25;3.28;;;2.00;;
73672;SDS011;61972;19.480;-99.240;2022-08-19T01:04:52;3.90;;;2.00;;
73672;SDS011;61972;19.480;-99.240;2022-08-19T01:07:19;3.60;;;2.03;;
73672;SDS011;61972;19.480;-99.240;2022-08-19T01:09:48;3.20;;;2.03;;
73672;SDS011;61972;19.480;-99.240;2022-08-19T01:12:14;5.35;;;2.10;;
73672;SDS011;61972;19.480;-99.240;2022-08-19T01:14:42;3.17;;;1.60;;
73672;SDS011;61972;19.480;-99.240;2022-08-19T01:17:09;4.40;;;1.88;;
73672;SDS011;61972;19.480;-99.240;2022-08-19T01:19:37;2.83;;;1.70;;
73672;SDS011;61972;19.480;-99.240;2022-08-19T01:22:08;4.40;;;2.10;;
73672;SDS011;61972;19.480;-99.240;2022-08-19T01:24:45;3.80;;;1.80;;
73672;SDS011;61972;19.480;-99.240;2022-08-19T01:27:11;4.28;;;2.00;;
73672;SDS011;61972;19.480;-99.240;2022-08-19T01:29:39;4.82;;;2.10;;
73672;SDS011;61972;19.480;-99.240;2022-08-19T01:32:07;4.60;;;2.20;;
73672;SDS011;61972;19.480;-99.240;2022-08-19T01:34:37;4.43;;;2.27;;
73672;SDS011;61972;19.480;-99.240;2022-08-19T01:37:10;7.15;;;2.53;;
73672;SDS011;61972;19.480;-99.240;2022-08-19T01:39:38;5.10;;;2.40;;
73672;SDS011;61972;19.480;-99.240;2022-08-19T01:42:07;4.72;;;2.50;;
73672;SDS011;61972;19.480;-99.240;2022-08-19T01:44:36;4.55;;;2.35;;
73672;SDS011;61972;19.480;-99.240;2022-08-19T01:47:04;5.83;;;2.20;;
73672;SDS011;61972;19.480;-99.240;2022-08-19T01:49:31;4.78;;;2.15;;
73672;SDS011;61972;19.480;-99.240;2022-08-19T01:51:58;5.32;;;2.38;;
73672;SDS011;61972;19.480;-99.240;2022-08-19T01:54:25;3.85;;;2.10;;
73672;SDS011;61972;19.480;-99.240;2022-08-19T01:56:51;4.20;;;2.38;;
73672;SDS011;61972;19.480;-99.240;2022-08-19T01:59:21;3.43;;;2.03;;
73672;SDS011;61972;19.480;-99.240;2022-08-19T02:01:49;5.20;;;2.50;;
73672;SDS011;61972;19.480;-99.240;2022-08-19T02:04:15;5.70;;;2.30;;
73672;SDS011;61972;19.480;-99.240;2022-08-19T02:06:41;4.78;;;2.20;;
73672;SDS011;61972;19.480;-99.240;2022-08-19T02:09:08;4.30;;;2.30;;
73672;SDS011;61972;19.480;-99.240;2022-08-19T02:11:38;4.37;;;2.30;;
73672;SDS011;61972;19.480;-99.240;2022-08-19T02:14:05;4.97;;;2.40;;
73672;SDS011;61972;19.480;-99.240;2022-08-19T02:16:33;5.03;;;2.80;;
73672;SDS011;61972;19.480;-99.240;2022-08-19T02:19:00;6.20;;;2.80;;
73672;SDS011;61972;19.480;-99.240;2022-08-19T02:21:26;4.43;;;2.65;;
73672;SDS011;61972;19.480;-99.240;2022-08-19T02:23:53;7.47;;;2.90;;
73672;SDS011;61972;19.480;-99.240;2022-08-19T02:26:20;6.53;;;3.05;;
73672;SDS011;61972;19.480;-99.240;2022-08-19T02:28:47;4.82;;;2.58;;
73672;SDS011;61972;19.480;-99.240;2022-08-19T02:31:17;6.03;;;3.25;;
73672;SDS011;61972;19.480;-99.240;2022-08-19T02:33:45;6.82;;;3.47;;
73672;SDS011;61972;19.480;-99.240;2022-08-19T02:36:13;4.87;;;2.97;;
73672;SDS011;61972;19.480;-99.240;2022-08-19T02:38:40;5.32;;;3.33;;
73672;SDS011;61972;19.480;-99.240;2022-08-19T02:41:13;6.95;;;3.40;;
73672;SDS011;61972;19.480;-99.240;2022-08-19T02:43:41;6.50;;;3.22;;
73672;SDS011;61972;19.480;-99.240;2022-08-19T02:46:18;6.53;;;3.45;;
73672;SDS011;61972;19.480;-99.240;2022-08-19T02:48:49;8.10;;;3.20;;
73672;SDS011;61972;19.480;-99.240;2022-08-19T02:51:18;5.65;;;3.45;;
73672;SDS011;61972;19.480;-99.240;2022-08-19T02:53:46;6.78;;;3.70;;
73672;SDS011;61972;19.480;-99.240;2022-08-19T02:56:12;7.22;;;3.30;;
73672;SDS011;61972;19.480;-99.240;2022-08-19T02:58:39;5.85;;;3.33;;
73672;SDS011;61972;19.480;-99.240;2022-08-19T03:01:06;6.27;;;3.33;;
73672;SDS011;61972;19.480;-99.240;2022-08-19T03:03:32;5.72;;;3.67;;
73672;SDS011;61972;19.480;-99.240;2022-08-19T03:08:30;5.70;;;3.30;;
73672;SDS011;61972;19.480;-99.240;2022-08-19T03:10:57;5.18;;;3.00;;
73672;SDS011;61972;19.480;-99.240;2022-08-19T03:13:23;6.13;;;3.37;;
73672;SDS011;61972;19.480;-99.240;2022-08-19T03:15:55;6.47;;;3.22;;
73672;SDS011;61972;19.480;-99.240;2022-08-19T03:18:21;5.35;;;3.20;;
73672;SDS011;61972;19.480;-99.240;2022-08-19T03:20:48;6.28;;;3.30;;
73672;SDS011;61972;19.480;-99.240;2022-08-19T03:23:18;5.03;;;3.10;;
73672;SDS011;61972;19.480;-99.240;2022-08-19T03:25:45;6.47;;;3.40;;
73672;SDS011;61972;19.480;-99.240;2022-08-19T03:28:13;6.63;;;2.95;;
73672;SDS011;61972;19.480;-99.240;2022-08-19T03:30:40;5.28;;;3.10;;
73672;SDS011;61972;19.480;-99.240;2022-08-19T03:33:09;5.75;;;3.10;;
73672;SDS011;61972;19.480;-99.240;2022-08-19T03:35:37;7.05;;;3.20;;
73672;SDS011;61972;19.480;-99.240;2022-08-19T03:38:04;7.60;;;3.23;;
73672;SDS011;61972;19.480;-99.240;2022-08-19T03:40:32;7.00;;;3.13;;
73672;SDS011;61972;19.480;-99.240;2022-08-19T03:43:02;8.05;;;3.33;;
73672;SDS011;61972;19.480;-99.240;2022-08-19T03:45:28;6.88;;;3.20;;
73672;SDS011;61972;19.480;-99.240;2022-08-19T03:47:54;7.50;;;2.92;;
73672;SDS011;61972;19.480;-99.240;2022-08-19T03:50:21;7.27;;;3.33;;
73672;SDS011;61972;19.480;-99.240;2022-08-19T03:52:48;6.22;;;3.33;;
73672;SDS011;61972;19.480;-99.240;2022-08-19T03:55:16;5.70;;;3.35;;
73672;SDS011;61972;19.480;-99.240;2022-08-19T03:57:42;6.65;;;3.30;;
73672;SDS011;61972;19.480;-99.240;2022-08-19T04:00:11;5.88;;;3.10;;
73672;SDS011;61972;19.480;-99.240;2022-08-19T04:02:37;6.27;;;2.83;;
73672;SDS011;61972;19.480;-99.240;2022-08-19T04:05:04;7.28;;;3.17;;
73672;SDS011;61972;19.480;-99.240;2022-08-19T04:07:30;5.50;;;2.70;;
73672;SDS011;61972;19.480;-99.240;2022-08-19T04:09:56;6.05;;;2.83;;
73672;SDS011;61972;19.480;-99.240;2022-08-19T04:12:22;10.55;;;3.20;;
73672;SDS011;61972;19.480;-99.240;2022-08-19T04:14:48;7.80;;;3.10;;
73672;SDS011;61972;19.480;-99.240;2022-08-19T04:17:15;6.93;;;2.47;;
73672;SDS011;61972;19.480;-99.240;2022-08-19T04:19:41;6.60;;;2.38;;
73672;SDS011;61972;19.480;-99.240;2022-08-19T04:22:08;5.63;;;2.85;;
73672;SDS011;61972;19.480;-99.240;2022-08-19T04:24:36;6.47;;;3.10;;
73672;SDS011;61972;19.480;-99.240;2022-08-19T04:27:03;5.13;;;3.10;;
73672;SDS011;61972;19.480;-99.240;2022-08-19T04:29:31;5.38;;;2.92;;
73672;SDS011;61972;19.480;-99.240;2022-08-19T04:31:58;5.07;;;2.65;;
73672;SDS011;61972;19.480;-99.240;2022-08-19T04:34:25;7.68;;;2.85;;
73672;SDS011;61972;19.480;-99.240;2022-08-19T04:36:55;5.68;;;2.85;;
73672;SDS011;61972;19.480;-99.240;2022-08-19T04:39:28;4.97;;;2.83;;
73672;SDS011;61972;19.480;-99.240;2022-08-19T04:42:14;5.53;;;2.60;;
73672;SDS011;61972;19.480;-99.240;2022-08-19T04:45:00;4.50;;;2.50;;
73672;SDS011;61972;19.480;-99.240;2022-08-19T04:47:28;6.15;;;2.33;;
73672;SDS011;61972;19.480;-99.240;2022-08-19T04:49:54;5.88;;;2.78;;
73672;SDS011;61972;19.480;-99.240;2022-08-19T04:52:20;4.67;;;2.70;;
73672;SDS011;61972;19.480;-99.240;2022-08-19T04:54:46;4.95;;;2.70;;
73672;SDS011;61972;19.480;-99.240;2022-08-19T04:57:13;5.32;;;2.50;;
73672;SDS011;61972;19.480;-99.240;2022-08-19T04:59:39;4.43;;;2.60;;
73672;SDS011;61972;19.480;-99.240;2022-08-19T05:02:06;5.68;;;2.60;;
73672;SDS011;61972;19.480;-99.240;2022-08-19T05:04:33;5.33;;;2.33;;
73672;SDS011;61972;19.480;-99.240;2022-08-19T05:07:00;4.13;;;2.53;;
73672;SDS011;61972;19.480;-99.240;2022-08-19T05:09:29;4.38;;;2.38;;
73672;SDS011;61972;19.480;-99.240;2022-08-19T05:11:55;4.28;;;2.70;;
73672;SDS011;61972;19.480;-99.240;2022-08-19T05:14:21;4.85;;;2.65;;
73672;SDS011;61972;19.480;-99.240;2022-08-19T05:16:48;4.10;;;2.70;;
73672;SDS011;61972;19.480;-99.240;2022-08-19T05:19:14;5.20;;;2.95;;
73672;SDS011;61972;19.480;-99.240;2022-08-19T05:21:59;4.28;;;2.70;;
73672;SDS011;61972;19.480;-99.240;2022-08-19T05:24:44;6.10;;;2.40;;
73672;SDS011;61972;19.480;-99.240;2022-08-19T05:27:10;4.63;;;2.30;;
73672;SDS011;61972;19.480;-99.240;2022-08-19T05:29:36;5.00;;;2.37;;
73672;SDS011;61972;19.480;-99.240;2022-08-19T05:32:03;4.03;;;2.60;;
73672;SDS011;61972;19.480;-99.240;2022-08-19T05:34:34;4.13;;;2.50;;
73672;SDS011;61972;19.480;-99.240;2022-08-19T05:37:01;4.07;;;2.42;;
73672;SDS011;61972;19.480;-99.240;2022-08-19T05:39:29;3.85;;;2.58;;
73672;SDS011;61972;19.480;-99.240;2022-08-19T05:42:00;4.23;;;2.10;;
73672;SDS011;61972;19.480;-99.240;2022-08-19T05:44:29;3.78;;;2.20;;
73672;SDS011;61972;19.480;-99.240;2022-08-19T05:46:58;4.85;;;2.70;;
73672;SDS011;61972;19.480;-99.240;2022-08-19T05:49:26;4.47;;;2.67;;
73672;SDS011;61972;19.480;-99.240;2022-08-19T05:51:53;5.72;;;2.90;;
73672;SDS011;61972;19.480;-99.240;2022-08-19T05:54:21;4.40;;;2.67;;
73672;SDS011;61972;19.480;-99.240;2022-08-19T05:56:51;3.90;;;2.30;;
73672;SDS011;61972;19.480;-99.240;2022-08-19T05:59:18;5.22;;;2.42;;
73672;SDS011;61972;19.480;-99.240;2022-08-19T06:01:46;3.80;;;2.42;;
73672;SDS011;61972;19.480;-99.240;2022-08-19T06:04:20;4.68;;;2.70;;
73672;SDS011;61972;19.480;-99.240;2022-08-19T06:06:47;4.07;;;2.43;;
73672;SDS011;61972;19.480;-99.240;2022-08-19T06:09:16;5.13;;;2.10;;
73672;SDS011;61972;19.480;-99.240;2022-08-19T06:11:44;5.50;;;2.95;;
73672;SDS011;61972;19.480;-99.240;2022-08-19T06:14:17;4.40;;;2.55;;
73672;SDS011;61972;19.480;-99.240;2022-08-19T06:16:46;4.55;;;2.78;;
73672;SDS011;61972;19.480;-99.240;2022-08-19T06:19:13;4.77;;;2.73;;
73672;SDS011;61972;19.480;-99.240;2022-08-19T06:21:42;4.35;;;2.60;;
73672;SDS011;61972;19.480;-99.240;2022-08-19T06:24:12;3.92;;;2.30;;
73672;SDS011;61972;19.480;-99.240;2022-08-19T06:26:42;3.88;;;2.20;;
73672;SDS011;61972;19.480;-99.240;2022-08-19T06:29:11;4.63;;;2.85;;
73672;SDS011;61972;19.480;-99.240;2022-08-19T06:31:44;4.43;;;2.50;;
73672;SDS011;61972;19.480;-99.240;2022-08-19T06:34:14;3.70;;;2.53;;
73672;SDS011;61972;19.480;-99.240;2022-08-19T06:36:42;4.10;;;2.38;;
73672;SDS011;61972;19.480;-99.240;2022-08-19T06:39:14;4.20;;;2.80;;
73672;SDS011;61972;19.480;-99.240;2022-08-19T06:42:00;5.07;;;2.90;;
73672;SDS011;61972;19.480;-99.240;2022-08-19T06:44:33;4.37;;;2.80;;
73672;SDS011;61972;19.480;-99.240;2022-08-19T06:47:02;4.85;;;2.40;;
73672;SDS011;61972;19.480;-99.240;2022-08-19T06:49:29;4.70;;;2.65;;
73672;SDS011;61972;19.480;-99.240;2022-08-19T06:51:58;4.10;;;2.70;;
73672;SDS011;61972;19.480;-99.240;2022-08-19T06:54:25;4.95;;;2.60;;
73672;SDS011;61972;19.480;-99.240;2022-08-19T06:56:53;3.80;;;2.30;;
73672;SDS011;61972;19.480;-99.240;2022-08-19T06:59:20;5.13;;;2.78;;
73672;SDS011;61972;19.480;-99.240;2022-08-19T07:01:53;4.63;;;2.67;;
73672;SDS011;61972;19.480;-99.240;2022-08-19T07:04:25;4.07;;;2.70;;
73672;SDS011;61972;19.480;-99.240;2022-08-19T07:07:00;4.78;;;2.60;;
73672;SDS011;61972;19.480;-99.240;2022-08-19T07:09:31;4.50;;;2.23;;
73672;SDS011;61972;19.480;-99.240;2022-08-19T07:11:57;4.78;;;2.50;;
73672;SDS011;61972;19.480;-99.240;2022-08-19T07:14:24;4.90;;;3.17;;
73672;SDS011;61972;19.480;-99.240;2022-08-19T07:16:53;4.22;;;2.70;;
73672;SDS011;61972;19.480;-99.240;2022-08-19T07:19:21;4.05;;;2.70;;
73672;SDS011;61972;19.480;-99.240;2022-08-19T07:21:50;4.07;;;2.60;;
73672;SDS011;61972;19.480;-99.240;2022-08-19T07:24:20;3.75;;;2.60;;
73672;SDS011;61972;19.480;-99.240;2022-08-19T07:26:49;5.55;;;2.83;;
73672;SDS011;61972;19.480;-99.240;2022-08-19T07:29:16;4.07;;;2.80;;
73672;SDS011;61972;19.480;-99.240;2022-08-19T07:31:44;4.35;;;2.90;;
73672;SDS011;61972;19.480;-99.240;2022-08-19T07:34:12;4.67;;;2.73;;
73672;SDS011;61972;19.480;-99.240;2022-08-19T07:36:40;4.30;;;2.38;;
73672;SDS011;61972;19.480;-99.240;2022-08-19T07:39:14;3.97;;;2.70;;
73672;SDS011;61972;19.480;-99.240;2022-08-19T07:41:43;4.25;;;2.40;;
73672;SDS011;61972;19.480;-99.240;2022-08-19T07:44:10;5.05;;;2.70;;
73672;SDS011;61972;19.480;-99.240;2022-08-19T07:46:38;4.67;;;2.77;;
73672;SDS011;61972;19.480;-99.240;2022-08-19T07:49:06;4.20;;;2.60;;
73672;SDS011;61972;19.480;-99.240;2022-08-19T07:51:44;5.68;;;2.78;;
73672;SDS011;61972;19.480;-99.240;2022-08-19T07:54:18;4.95;;;2.50;;
73672;SDS011;61972;19.480;-99.240;2022-08-19T07:56:45;4.97;;;2.80;;
73672;SDS011;61972;19.480;-99.240;2022-08-19T07:59:12;4.90;;;2.80;;
73672;SDS011;61972;19.480;-99.240;2022-08-19T08:01:38;4.30;;;2.75;;
73672;SDS011;61972;19.480;-99.240;2022-08-19T08:04:05;4.28;;;2.83;;
73672;SDS011;61972;19.480;-99.240;2022-08-19T08:06:50;4.65;;;2.70;;
73672;SDS011;61972;19.480;-99.240;2022-08-19T08:09:37;4.57;;;2.70;;
73672;SDS011;61972;19.480;-99.240;2022-08-19T08:12:07;3.83;;;2.60;;
73672;SDS011;61972;19.480;-99.240;2022-08-19T08:17:13;4.38;;;2.70;;
73672;SDS011;61972;19.480;-99.240;2022-08-19T08:19:41;4.57;;;2.83;;
73672;SDS011;61972;19.480;-99.240;2022-08-19T08:22:08;5.38;;;2.70;;
73672;SDS011;61972;19.480;-99.240;2022-08-19T08:24:55;4.23;;;2.60;;
73672;SDS011;61972;19.480;-99.240;2022-08-19T08:27:23;4.25;;;2.75;;
73672;SDS011;61972;19.480;-99.240;2022-08-19T08:29:51;4.05;;;2.42;;
73672;SDS011;61972;19.480;-99.240;2022-08-19T08:32:17;4.53;;;2.50;;
73672;SDS011;61972;19.480;-99.240;2022-08-19T08:34:43;3.55;;;2.40;;
73672;SDS011;61972;19.480;-99.240;2022-08-19T08:37:09;6.10;;;2.27;;
73672;SDS011;61972;19.480;-99.240;2022-08-19T08:39:35;4.43;;;2.30;;
73672;SDS011;61972;19.480;-99.240;2022-08-19T08:42:09;3.75;;;2.38;;
73672;SDS011;61972;19.480;-99.240;2022-08-19T08:44:52;3.75;;;2.50;;
73672;SDS011;61972;19.480;-99.240;2022-08-19T08:47:33;4.50;;;2.83;;
73672;SDS011;61972;19.480;-99.240;2022-08-19T08:52:36;3.92;;;2.35;;
73672;SDS011;61972;19.480;-99.240;2022-08-19T08:55:15;4.47;;;2.72;;
73672;SDS011;61972;19.480;-99.240;2022-08-19T09:00:18;3.92;;;2.30;;
73672;SDS011;61972;19.480;-99.240;2022-08-19T09:02:56;3.60;;;2.40;;
73672;SDS011;61972;19.480;-99.240;2022-08-19T09:05:25;3.67;;;2.40;;
73672;SDS011;61972;19.480;-99.240;2022-08-19T09:08:07;4.70;;;2.75;;
73672;SDS011;61972;19.480;-99.240;2022-08-19T09:10:44;5.18;;;2.45;;
73672;SDS011;61972;19.480;-99.240;2022-08-19T09:13:17;4.03;;;2.47;;
73672;SDS011;61972;19.480;-99.240;2022-08-19T09:15:52;4.50;;;2.43;;
73672;SDS011;61972;19.480;-99.240;2022-08-19T09:18:23;4.45;;;2.50;;
73672;SDS011;61972;19.480;-99.240;2022-08-19T09:20:50;3.67;;;2.40;;
73672;SDS011;61972;19.480;-99.240;2022-08-19T09:23:16;4.07;;;2.72;;
73672;SDS011;61972;19.480;-99.240;2022-08-19T09:25:49;3.55;;;2.50;;
73672;SDS011;61972;19.480;-99.240;2022-08-19T09:28:16;4.00;;;2.40;;
73672;SDS011;61972;19.480;-99.240;2022-08-19T09:30:42;5.20;;;2.50;;
73672;SDS011;61972;19.480;-99.240;2022-08-19T09:33:08;4.20;;;2.50;;
73672;SDS011;61972;19.480;-99.240;2022-08-19T09:35:34;4.10;;;2.38;;
73672;SDS011;61972;19.480;-99.240;2022-08-19T09:38:00;4.40;;;2.88;;
73672;SDS011;61972;19.480;-99.240;2022-08-19T09:40:27;3.90;;;2.50;;
73672;SDS011;61972;19.480;-99.240;2022-08-19T09:42:54;3.13;;;2.38;;
73672;SDS011;61972;19.480;-99.240;2022-08-19T09:45:20;3.70;;;2.35;;
73672;SDS011;61972;19.480;-99.240;2022-08-19T09:47:48;4.72;;;2.45;;
73672;SDS011;61972;19.480;-99.240;2022-08-19T09:50:18;3.42;;;2.50;;
73672;SDS011;61972;19.480;-99.240;2022-08-19T09:52:44;4.50;;;2.40;;
73672;SDS011;61972;19.480;-99.240;2022-08-19T09:55:11;4.45;;;2.50;;
73672;SDS011;61972;19.480;-99.240;2022-08-19T09:57:37;3.38;;;2.20;;
73672;SDS011;61972;19.480;-99.240;2022-08-19T10:00:05;3.75;;;2.33;;
73672;SDS011;61972;19.480;-99.240;2022-08-19T10:02:33;5.07;;;2.28;;
73672;SDS011;61972;19.480;-99.240;2022-08-19T10:05:02;4.83;;;2.23;;
73672;SDS011;61972;19.480;-99.240;2022-08-19T10:07:47;5.75;;;2.33;;
73672;SDS011;61972;19.480;-99.240;2022-08-19T10:10:13;4.68;;;2.50;;
73672;SDS011;61972;19.480;-99.240;2022-08-19T10:12:39;4.13;;;2.42;;
73672;SDS011;61972;19.480;-99.240;2022-08-19T10:15:05;3.42;;;2.22;;
73672;SDS011;61972;19.480;-99.240;2022-08-19T10:17:32;3.67;;;2.33;;
73672;SDS011;61972;19.480;-99.240;2022-08-19T10:20:00;3.83;;;2.22;;
73672;SDS011;61972;19.480;-99.240;2022-08-19T10:22:28;3.78;;;2.30;;
73672;SDS011;61972;19.480;-99.240;2022-08-19T10:24:54;4.40;;;2.50;;
73672;SDS011;61972;19.480;-99.240;2022-08-19T10:27:20;4.30;;;2.45;;
73672;SDS011;61972;19.480;-99.240;2022-08-19T10:29:46;3.13;;;2.30;;
73672;SDS011;61972;19.480;-99.240;2022-08-19T10:32:13;3.75;;;2.60;;
73672;SDS011;61972;19.480;-99.240;2022-08-19T10:34:39;4.30;;;2.05;;
73672;SDS011;61972;19.480;-99.240;2022-08-19T10:37:05;5.00;;;2.40;;
73672;SDS011;61972;19.480;-99.240;2022-08-19T10:39:32;3.33;;;2.25;;
73672;SDS011;61972;19.480;-99.240;2022-08-19T10:42:03;4.03;;;2.30;;
73672;SDS011;61972;19.480;-99.240;2022-08-19T10:44:35;3.78;;;2.40;;
73672;SDS011;61972;19.480;-99.240;2022-08-19T10:47:02;3.92;;;2.50;;
73672;SDS011;61972;19.480;-99.240;2022-08-19T10:49:29;4.70;;;2.15;;
73672;SDS011;61972;19.480;-99.240;2022-08-19T10:51:56;3.63;;;2.47;;
73672;SDS011;61972;19.480;-99.240;2022-08-19T10:54:40;3.63;;;2.37;;
73672;SDS011;61972;19.480;-99.240;2022-08-19T10:57:25;3.33;;;2.22;;
73672;SDS011;61972;19.480;-99.240;2022-08-19T10:59:55;3.53;;;2.40;;
73672;SDS011;61972;19.480;-99.240;2022-08-19T11:02:21;4.13;;;2.30;;
73672;SDS011;61972;19.480;-99.240;2022-08-19T11:04:47;3.53;;;2.25;;
73672;SDS011;61972;19.480;-99.240;2022-08-19T11:07:15;3.37;;;2.30;;
73672;SDS011;61972;19.480;-99.240;2022-08-19T11:09:42;3.17;;;2.20;;
73672;SDS011;61972;19.480;-99.240;2022-08-19T11:12:08;3.35;;;2.25;;
73672;SDS011;61972;19.480;-99.240;2022-08-19T11:14:35;4.38;;;2.38;;
73672;SDS011;61972;19.480;-99.240;2022-08-19T11:17:03;3.92;;;2.28;;
73672;SDS011;61972;19.480;-99.240;2022-08-19T11:19:30;3.60;;;2.20;;
73672;SDS011;61972;19.480;-99.240;2022-08-19T11:21:56;3.63;;;2.33;;
73672;SDS011;61972;19.480;-99.240;2022-08-19T11:24:26;3.20;;;2.00;;
73672;SDS011;61972;19.480;-99.240;2022-08-19T11:26:54;3.03;;;2.15;;
73672;SDS011;61972;19.480;-99.240;2022-08-19T11:29:26;3.65;;;2.47;;
73672;SDS011;61972;19.480;-99.240;2022-08-19T11:31:53;3.43;;;2.10;;
73672;SDS011;61972;19.480;-99.240;2022-08-19T11:34:24;5.15;;;3.20;;
73672;SDS011;61972;19.480;-99.240;2022-08-19T11:36:53;5.75;;;3.00;;
73672;SDS011;61972;19.480;-99.240;2022-08-19T11:39:23;5.38;;;2.80;;
73672;SDS011;61972;19.480;-99.240;2022-08-19T11:41:50;6.63;;;3.10;;
73672;SDS011;61972;19.480;-99.240;2022-08-19T11:44:16;4.80;;;3.00;;
73672;SDS011;61972;19.480;-99.240;2022-08-19T11:46:43;8.27;;;3.10;;
73672;SDS011;61972;19.480;-99.240;2022-08-19T11:49:11;6.60;;;2.85;;
73672;SDS011;61972;19.480;-99.240;2022-08-19T11:51:37;6.13;;;2.63;;
73672;SDS011;61972;19.480;-99.240;2022-08-19T11:54:04;10.95;;;2.90;;
73672;SDS011;61972;19.480;-99.240;2022-08-19T11:56:31;10.97;;;2.77;;
73672;SDS011;61972;19.480;-99.240;2022-08-19T11:58:58;4.80;;;2.60;;
73672;SDS011;61972;19.480;-99.240;2022-08-19T12:01:26;5.53;;;3.05;;
73672;SDS011;61972;19.480;-99.240;2022-08-19T12:03:53;5.45;;;2.83;;
73672;SDS011;61972;19.480;-99.240;2022-08-19T12:06:21;4.55;;;2.63;;
73672;SDS011;61972;19.480;-99.240;2022-08-19T12:08:56;4.97;;;2.83;;
73672;SDS011;61972;19.480;-99.240;2022-08-19T12:11:31;5.13;;;2.45;;
73672;SDS011;61972;19.480;-99.240;2022-08-19T12:13:57;5.53;;;2.30;;
73672;SDS011;61972;19.480;-99.240;2022-08-19T12:16:25;6.18;;;2.90;;
73672;SDS011;61972;19.480;-99.240;2022-08-19T12:18:53;3.83;;;2.35;;
73672;SDS011;61972;19.480;-99.240;2022-08-19T12:21:21;4.00;;;2.40;;
73672;SDS011;61972;19.480;-99.240;2022-08-19T12:23:53;5.35;;;2.63;;
73672;SDS011;61972;19.480;-99.240;2022-08-19T12:26:24;5.15;;;2.53;;
73672;SDS011;61972;19.480;-99.240;2022-08-19T12:28:51;4.10;;;2.30;;
73672;SDS011;61972;19.480;-99.240;2022-08-19T12:31:18;4.47;;;2.50;;
73672;SDS011;61972;19.480;-99.240;2022-08-19T12:33:45;6.83;;;2.50;;
73672;SDS011;61972;19.480;-99.240;2022-08-19T12:36:12;4.47;;;2.50;;
73672;SDS011;61972;19.480;-99.240;2022-08-19T12:38:41;3.53;;;2.30;;
73672;SDS011;61972;19.480;-99.240;2022-08-19T12:41:10;4.65;;;2.50;;
73672;SDS011;61972;19.480;-99.240;2022-08-19T12:43:38;3.75;;;2.60;;
73672;SDS011;61972;19.480;-99.240;2022-08-19T12:46:06;3.53;;;2.33;;
73672;SDS011;61972;19.480;-99.240;2022-08-19T12:48:33;3.90;;;2.58;;
73672;SDS011;61972;19.480;-99.240;2022-08-19T12:50:59;3.75;;;2.35;;
73672;SDS011;61972;19.480;-99.240;2022-08-19T12:53:30;3.80;;;2.30;;
73672;SDS011;61972;19.480;-99.240;2022-08-19T12:55:59;3.90;;;2.42;;
73672;SDS011;61972;19.480;-99.240;2022-08-19T12:58:29;4.33;;;2.50;;
73672;SDS011;61972;19.480;-99.240;2022-08-19T13:00:55;4.68;;;2.95;;
73672;SDS011;61972;19.480;-99.240;2022-08-19T13:03:21;4.32;;;2.42;;
73672;SDS011;61972;19.480;-99.240;2022-08-19T13:05:52;3.30;;;2.10;;
73672;SDS011;61972;19.480;-99.240;2022-08-19T13:08:18;4.05;;;2.30;;
73672;SDS011;61972;19.480;-99.240;2022-08-19T13:10:44;3.73;;;2.13;;
73672;SDS011;61972;19.480;-99.240;2022-08-19T13:13:11;3.60;;;2.42;;
73672;SDS011;61972;19.480;-99.240;2022-08-19T13:15:38;4.40;;;2.50;;
73672;SDS011;61972;19.480;-99.240;2022-08-19T13:18:06;3.70;;;2.10;;
73672;SDS011;61972;19.480;-99.240;2022-08-19T13:20:34;5.40;;;2.40;;
73672;SDS011;61972;19.480;-99.240;2022-08-19T13:23:02;4.10;;;2.50;;
73672;SDS011;61972;19.480;-99.240;2022-08-19T13:25:29;4.32;;;2.30;;
73672;SDS011;61972;19.480;-99.240;2022-08-19T13:27:56;3.85;;;2.50;;
73672;SDS011;61972;19.480;-99.240;2022-08-19T13:30:22;4.80;;;2.50;;
73672;SDS011;61972;19.480;-99.240;2022-08-19T13:33:07;3.05;;;2.05;;
73672;SDS011;61972;19.480;-99.240;2022-08-19T13:35:41;4.10;;;2.20;;
73672;SDS011;61972;19.480;-99.240;2022-08-19T13:38:24;4.65;;;2.22;;
73672;SDS011;61972;19.480;-99.240;2022-08-19T13:40:51;3.70;;;2.00;;
73672;SDS011;61972;19.480;-99.240;2022-08-19T13:43:19;3.42;;;2.17;;
73672;SDS011;61972;19.480;-99.240;2022-08-19T13:45:50;4.72;;;2.38;;
73672;SDS011;61972;19.480;-99.240;2022-08-19T13:48:21;3.83;;;2.30;;
73672;SDS011;61972;19.480;-99.240;2022-08-19T13:50:48;4.50;;;2.60;;
73672;SDS011;61972;19.480;-99.240;2022-08-19T13:53:15;9.50;;;3.10;;
73672;SDS011;61972;19.480;-99.240;2022-08-19T13:55:42;9.40;;;3.67;;
73672;SDS011;61972;19.480;-99.240;2022-08-19T13:58:09;8.93;;;3.70;;
73672;SDS011;61972;19.480;-99.240;2022-08-19T14:00:38;9.47;;;4.63;;
73672;SDS011;61972;19.480;-99.240;2022-08-19T14:03:07;9.30;;;4.43;;
73672;SDS011;61972;19.480;-99.240;2022-08-19T14:05:34;7.85;;;4.72;;
73672;SDS011;61972;19.480;-99.240;2022-08-19T14:08:00;8.13;;;5.03;;
73672;SDS011;61972;19.480;-99.240;2022-08-19T14:10:27;10.57;;;4.90;;
73672;SDS011;61972;19.480;-99.240;2022-08-19T14:12:56;11.10;;;5.70;;
73672;SDS011;61972;19.480;-99.240;2022-08-19T14:15:26;11.07;;;5.40;;
73672;SDS011;61972;19.480;-99.240;2022-08-19T14:17:57;13.48;;;6.05;;
73672;SDS011;61972;19.480;-99.240;2022-08-19T14:20:23;14.60;;;6.00;;
73672;SDS011;61972;19.480;-99.240;2022-08-19T14:22:50;12.18;;;5.53;;
73672;SDS011;61972;19.480;-99.240;2022-08-19T14:25:17;10.70;;;5.90;;
73672;SDS011;61972;19.480;-99.240;2022-08-19T14:27:46;12.80;;;5.90;;
73672;SDS011;61972;19.480;-99.240;2022-08-19T14:30:17;12.32;;;6.03;;
73672;SDS011;61972;19.480;-99.240;2022-08-19T14:32:45;11.23;;;6.43;;
73672;SDS011;61972;19.480;-99.240;2022-08-19T14:35:15;12.30;;;6.28;;
73672;SDS011;61972;19.480;-99.240;2022-08-19T14:37:42;11.67;;;6.67;;
73672;SDS011;61972;19.480;-99.240;2022-08-19T14:40:09;10.23;;;6.25;;